25 september 2022

Tijd Code Weer Temp. Zicht Plafond Wind METAR/SPECI
10:00 p.m.
M
55 °F 15 mi 1.700 ft 070° 070° 7 kt METAR CYUL 260200Z 07007KT 15SM BKN017 OVC065 13/11 A2953 RMK SC6SC2 SLP001 DENSITY ALT 500FT
9:35 p.m.
V
55 °F 15 mi 6.200 ft 080° 080° 5 kt METAR CYUL 260135Z 08005KT 15SM -DZ SCT018 BKN062 OVC100 13/11 A2953 RMK SC3SC3AC2 -DZ INTMT SLP003 DENSITY ALT 400FT
9:23 p.m.
V
55 °F 15 mi 6.000 ft 080° 080° 5 kt METAR CYUL 260123Z 08005KT 15SM SCT017 BKN060 OVC090 13/11 A2954 RMK SF4SC2AC2 SLP004 DENSITY ALT 400FT
9:11 p.m.
V
55 °F 10 mi 6.500 ft 090° 090° 5 kt METAR CYUL 260111Z 09005KT 10SM -DZ SCT016 BKN065 OVC090 13/11 A2954 RMK ST4SC2AC2 SLP004 DENSITY ALT 400FT
9:00 p.m.
V
55 °F 15 mi 6.500 ft 100° 100° 5 kt METAR CYUL 260100Z 10005KT 15SM SCT016 BKN065 OVC085 13/11 A2954 RMK SF4SC2AC2 SLP004 DENSITY ALT 400FT
8:24 p.m.
V
57 °F 15 mi 8.500 ft 120° 120° 6 kt METAR CYUL 260024Z 12006KT 15SM FEW015 SCT065 BKN085 OVC130 14/11 A2954 RMK SF1SC2AC4AC1 SLP007 DENSITY ALT 400FT
8:00 p.m.
V
57 °F 10 mi 10.000 ft 120° 120° 7 kt METAR CYUL 260000Z 12007KT 10SM -DZ FEW015 SCT065 BKN100 OVC130 14/11 A2955 RMK SF1SC3AC3AC1 SLP008 DENSITY ALT 500FT
7:09 p.m.
V
57 °F 10 mi 6.500 ft 110° 110° 6 kt METAR CYUL 252309Z 11006KT 10SM -DZ BKN065 BKN080 OVC140 14/11 A2955 RMK SC5AC1AC3 AC TR SLP009 DENSITY ALT 500FT
7:00 p.m.
V
57 °F 15 mi 9.000 ft 120° 120° 9 kt METAR CYUL 252300Z 12009KT 15SM SCT065 BKN090 BKN120 14/11 A2955 RMK SC3AC3AC2 SLP010 DENSITY ALT 500FT
6:00 p.m.
V
59 °F 15 mi 13.000 ft 130° 130° 9 kt METAR CYUL 252200Z CCA 13009KT 15SM FEW090 OVC130 15/10 A2955 RMK AC2AC6 SLP010 DENSITY ALT 600FT
5:00 p.m.
V
59 °F 15 mi 13.000 ft 140° 140° 10 kt METAR CYUL 252100Z 14010KT 15SM BKN130 OVC250 15/10 A2956 RMK AC7CI1 CI TR SLP012 DENSITY ALT 600FT
4:00 p.m.
V
61 °F 20 mi 7.000 ft 140° 140° 8 kt METAR CYUL 252000Z 14008KT 20SM BKN070 BKN130 OVC240 16/09 A2957 RMK AC5AC2CI1 SLP014 DENSITY ALT 700FT
3:00 p.m.
V
63 °F 20 mi 10.000 ft 120° 120° 9 kt METAR CYUL 251900Z 12009KT 20SM SCT070 BKN100 BKN140 17/10 A2958 RMK AC4ACC2AC1 SLP019 DENSITY ALT 800FT
2:00 p.m.
V
63 °F 20 mi 7.000 ft 110° 110° 6 kt METAR CYUL 251800Z 11006KT 100V160 20SM BKN070 BKN100 BKN140 17/09 A2960 RMK AC5ACC1AC1 SLP027 DENSITY ALT 800FT
1:00 p.m.
V
63 °F 20 mi 14.000 ft 140° 140° 9 kt METAR CYUL 251700Z 14009KT 090V170 20SM FEW080 BKN140 17/10 A2963 RMK ACC1AC7 ACC TR SLP037 DENSITY ALT 700FT
12:00 p.m.
V
59 °F 20 mi 14.000 ft 180° 180° 4 kt METAR CYUL 251600Z 18004KT 150V220 20SM FEW100 BKN140 15/10 A2965 RMK AC1AC6 SLP043 DENSITY ALT 500FT
11:00 a.m.
V
59 °F 20 mi 16.000 ft 190° 190° 4 kt METAR CYUL 251500Z 19004KT 140V210 20SM FEW095 BKN160 15/10 A2967 RMK AC1AC6 SLP049 DENSITY ALT 500FT
10:00 a.m.
V
57 °F 20 mi 16.000 ft 210° 210° 5 kt METAR CYUL 251400Z 21005KT 20SM FEW060 OVC160 14/10 A2968 RMK SC1AC7 SLP054 DENSITY ALT 400FT
9:00 a.m.
V
55 °F 30 mi 15.000 ft 220° 220° 3 kt METAR CYUL 251300Z 22003KT 30SM FEW060 OVC150 13/10 A2970 RMK SC1AC7 SLP059 DENSITY ALT 200FT
8:44 a.m.
V
54 °F 30 mi 14.000 ft 230° 230° 2 kt METAR CYUL 251244Z 23002KT 30SM FEW090 OVC140 12/11 A2970 RMK AC1AC7 SLP060
8:26 a.m.
V
54 °F 30 mi 13.000 ft 250° 250° 4 kt METAR CYUL 251226Z 25004KT 30SM -SHRA FEW080 OVC130 12/10 A2970 RMK AC2AC6 CVCTV CLD EMBD SLP060
8:00 a.m.
V
54 °F 30 mi 12.000 ft 260° 260° 4 kt METAR CYUL 251200Z 26004KT 30SM FEW080 OVC120 12/10 A2970 RMK AC1AC7 CVCTV CLD EMBD SLP061
7:48 a.m.
V
54 °F 30 mi 12.000 ft 250° 250° 4 kt METAR CYUL 251148Z 25004KT 30SM -SHRA FEW065 OVC120 12/10 A2970 RMK SC2AC6 CVCTV CLD EMBD SLP062
7:00 a.m.
V
54 °F 30 mi 14.000 ft 220° 220° 6 kt METAR CYUL 251100Z 22006KT 30SM FEW060 FEW110 OVC140 12/10 A2972 RMK CF1AC2AC6 CF TR SLP065
6:00 a.m.
V
54 °F 15 mi 14.000 ft 240° 240° 5 kt METAR CYUL 251000Z 24005KT 15SM FEW060 BKN140 BKN160 12/10 A2972 RMK SC1AC5AC2 SC TR SLP066
5:00 a.m.
V
52 °F 15 mi 20.000 ft 220° 220° 4 kt METAR CYUL 250900Z 22004KT 15SM FEW020 SCT170 BKN200 11/09 A2973 RMK CF1AC3CI3 CF TR SLP070
4:00 a.m.
V
52 °F 15 mi 21.000 ft 230° 230° 7 kt METAR CYUL 250800Z 23007KT 15SM FEW020 BKN210 11/09 A2975 RMK CF1CS7 CF TR SLP075
3:00 a.m.
V
52 °F 15 mi 21.000 ft 240° 240° 7 kt METAR CYUL 250700Z 24007KT 15SM BKN210 11/09 A2976 RMK CS7 SLP080
2:00 a.m.
V
52 °F 15 mi 22.000 ft 240° 240° 8 kt METAR CYUL 250600Z 24008KT 15SM BKN220 11/09 A2978 RMK CS7 SLP085
1:00 a.m.
V
52 °F 15 mi 22.000 ft 250° 250° 6 kt METAR CYUL 250500Z 25006KT 15SM BKN220 11/09 A2978 RMK CS7 SLP088
12:00 a.m.
V
52 °F 15 mi - 250° 250° 8 kt METAR CYUL 250400Z 25008KT 15SM SKC 11/09 A2979 RMK SLP091

24 september 2022

Tijd Code Weer Temp. Zicht Plafond Wind METAR/SPECI
11:00 p.m.
V
54 °F 15 mi - 240° 240° 7 kt METAR CYUL 250300Z 24007KT 15SM SKC 12/07 A2980 RMK SLP093
10:00 p.m.
V
57 °F 15 mi - 280° 280° 8 kt METAR CYUL 250200Z 28008KT 15SM SKC 14/07 A2979 RMK SLP091 DENSITY ALT 200FT
9:00 p.m.
V
57 °F 15 mi - 260° 260° 9 kt METAR CYUL 250100Z 26009KT 15SM FEW250 14/07 A2980 RMK CI1 CI TR SLP094 DENSITY ALT 200FT
8:00 p.m.
V
57 °F 15 mi - 240° 240° 8 kt METAR CYUL 250000Z 24008KT 15SM FEW250 14/07 A2980 RMK CI1 SLP094 DENSITY ALT 200FT
7:00 p.m.
V
59 °F 15 mi - 240° 240° 7 kt METAR CYUL 242300Z 24007KT 15SM FEW250 15/07 A2980 RMK CI1 CI TR SLP094 DENSITY ALT 400FT
6:00 p.m.
V
64 °F 25 mi - 260° 260° 12 kt METAR CYUL 242200Z 26012KT 25SM FEW250 18/06 A2981 RMK CI1 CI TR SLP097 DENSITY ALT 600FT
5:00 p.m.
V
64 °F 30 mi - 260° 260° 15 - 21 kt METAR CYUL 242100Z 26015G21KT 30SM FEW250 18/06 A2982 RMK CI1 CI TR SLP100 DENSITY ALT 700FT
4:00 p.m.
V
66 °F 30 mi - 260° 260° 16 - 22 kt METAR CYUL 242000Z 26016G22KT 30SM FEW050 FEW250 19/06 A2983 RMK CF1CI1 CI TR SLP104 DENSITY ALT 700FT
3:00 p.m.
V
66 °F 30 mi - 260° 260° 15 - 22 kt METAR CYUL 241900Z 26015G22KT 30SM FEW050 SCT250 19/07 A2986 RMK CF2CI1 SLP113 DENSITY ALT 700FT
2:00 p.m.
V
64 °F 30 mi - 260° 260° 15 - 21 kt METAR CYUL 241800Z 26015G21KT 30SM FEW060 FEW250 18/07 A2988 RMK CF2CI1 CI TR SLP122 DENSITY ALT 600FT
1:00 p.m.
V
63 °F 30 mi - 270° 270° 16 kt METAR CYUL 241700Z 27016KT 30SM FEW060 FEW250 17/06 A2990 RMK CF1CI1 CI TR SLP127 DENSITY ALT 500FT
12:00 p.m.
V
59 °F 30 mi - 270° 270° 10 - 15 kt METAR CYUL 241600Z 27010G15KT 30SM FEW100 FEW250 15/08 A2992 RMK AC1CI1 AC TR CI TR SLP135 DENSITY ALT 200FT
11:00 a.m.
V
57 °F 30 mi - 270° 270° 8 kt METAR CYUL 241500Z 27008KT 230V300 30SM FEW230 14/08 A2994 RMK CI1 CI TR SLP142
10:00 a.m.
V
55 °F 30 mi - 250° 250° 11 kt METAR CYUL 241400Z 25011KT 30SM SCT230 13/06 A2995 RMK CI1 CI TR SLP145
9:00 a.m.
V
52 °F 30 mi - 270° 270° 12 kt METAR CYUL 241300Z 27012KT 30SM FEW240 11/05 A2996 RMK CI1 CI TR SLP147
8:00 a.m.
V
48 °F 30 mi - 280° 280° 13 kt METAR CYUL 241200Z 28013KT 30SM FEW240 09/05 A2996 RMK CI1 CI TR SLP148
7:00 a.m.
V
45 °F 30 mi - 280° 280° 9 kt METAR CYUL 241100Z 28009KT 30SM FEW240 07/04 A2996 RMK CI1 CI TR SLP148
6:00 a.m.
V
45 °F 15 mi - 270° 270° 11 kt METAR CYUL 241000Z 27011KT 15SM FEW020 FEW120 07/04 A2996 RMK CF1AC1 CF TR AC TR SLP148
5:00 a.m.
V
45 °F 15 mi - 260° 260° 8 kt METAR CYUL 240900Z 26008KT 15SM SKC 07/04 A2994 RMK SLP143
4:00 a.m.
V
45 °F 15 mi - 270° 270° 7 kt METAR CYUL 240800Z 27007KT 15SM SKC 07/04 A2996 RMK SLP149
3:00 a.m.
V
45 °F 15 mi - 270° 270° 5 kt METAR CYUL 240700Z 27005KT 15SM SKC 07/03 A2997 RMK SLP152
2:00 a.m.
V
45 °F 15 mi - 270° 270° 6 kt METAR CYUL 240600Z 27006KT 15SM SKC 07/03 A2998 RMK SLP155
1:00 a.m.
V
45 °F 15 mi - 280° 280° 6 kt METAR CYUL 240500Z 28006KT 15SM SKC 07/03 A2998 RMK SLP155
12:00 a.m.
V
45 °F 15 mi - 280° 280° 5 kt METAR CYUL 240400Z 28005KT 15SM SKC 07/02 A3000 RMK SLP160

23 september 2022

Tijd Code Weer Temp. Zicht Plafond Wind METAR/SPECI
11:00 p.m.
V
46 °F 15 mi - 280° 280° 6 kt METAR CYUL 240300Z 28006KT 270V360 15SM SKC 08/02 A3000 RMK SLP160
10:00 p.m.
V
48 °F 15 mi - 280° 280° 6 kt METAR CYUL 240200Z 28006KT 15SM SKC 09/03 A2999 RMK SLP159
9:00 p.m.
V
48 °F 15 mi - 290° 290° 8 kt METAR CYUL 240100Z 29008KT 15SM SKC 09/02 A2999 RMK SLP157
8:00 p.m.
V
50 °F 15 mi - 300° 300° 10 - 15 kt METAR CYUL 240000Z 30010G15KT 15SM FEW060 10/02 A2999 RMK SC1 SC TR SLP157
7:00 p.m.
V
52 °F 15 mi - 300° 300° 12 - 18 kt METAR CYUL 232300Z 30012G18KT 15SM FEW060 FEW250 11/02 A2998 RMK SC1CI1 SC TR CI TR SLP155
6:00 p.m.
V
55 °F 30 mi - 300° 300° 16 kt METAR CYUL 232200Z 30016KT 30SM FEW060 FEW250 13/01 A2997 RMK SC1CI1 SC TR CI TR SLP150
5:00 p.m.
V
55 °F 30 mi - 300° 300° 13 - 21 kt METAR CYUL 232100Z 30013G21KT 30SM FEW055 FEW250 13/01 A2995 RMK SC1CI1 SC TR CI TR SLP144
4:00 p.m.
V
55 °F 30 mi - 300° 300° 14 - 20 kt METAR CYUL 232000Z 30014G20KT 30SM FEW050 FEW250 13/01 A2994 RMK SC1CI1 SC TR CI TR SLP143
Oudere gegevens

Met cookies volgen wij en derde partijen jouw internetgedrag binnen onze site. Als je verdergaat gaan we ervan uit dat je dit goedvindt. Meer info